createdAt,value
2022-07-29T00:00:01.523Z,5.12
2022-07-29T00:03:04.318Z,4.82
2022-07-29T00:06:07.372Z,5.40
2022-07-29T00:09:10.165Z,4.77
2022-07-29T00:12:13.105Z,4.72
2022-07-29T00:15:16.559Z,5.15
2022-07-29T00:18:19.408Z,4.78
2022-07-29T00:21:21.956Z,4.90
2022-07-29T00:24:24.789Z,5.00
2022-07-29T00:27:27.255Z,5.28
2022-07-29T00:30:30.251Z,5.12
2022-07-29T00:33:32.774Z,4.80
2022-07-29T00:36:35.547Z,5.28
2022-07-29T00:39:38.037Z,4.73
2022-07-29T00:42:58.641Z,5.45
2022-07-29T00:46:02.489Z,5.57
2022-07-29T00:49:08.568Z,4.85
2022-07-29T00:52:12.460Z,5.05
2022-07-29T00:55:17.032Z,5.07
2022-07-29T00:58:19.672Z,5.80
2022-07-29T01:01:22.604Z,5.35
2022-07-29T01:04:25.411Z,5.28
2022-07-29T01:07:28.679Z,5.12
2022-07-29T01:10:31.502Z,5.30
2022-07-29T01:13:34.445Z,5.32
2022-07-29T01:16:45.744Z,5.15
2022-07-29T01:20:13.497Z,5.32
2022-07-29T01:23:21.920Z,5.53
2022-07-29T01:26:48.887Z,6.03
2022-07-29T01:43:14.484Z,5.80
2022-07-29T01:46:22.717Z,5.18
2022-07-29T01:49:30.078Z,5.30
2022-07-29T01:52:39.443Z,5.15
2022-07-29T01:55:45.726Z,5.80
2022-07-29T01:58:49.431Z,5.75
2022-07-29T02:01:54.653Z,5.47
2022-07-29T02:04:58.934Z,5.57
2022-07-29T02:08:02.361Z,5.85
2022-07-29T02:11:06.083Z,5.60
2022-07-29T02:14:09.920Z,5.80
2022-07-29T02:17:13.704Z,5.35
2022-07-29T02:20:17.258Z,5.62
2022-07-29T02:23:22.283Z,5.35
2022-07-29T02:26:25.926Z,5.73
2022-07-29T02:29:31.354Z,5.68
2022-07-29T02:32:36.539Z,6.10
2022-07-29T02:35:39.790Z,5.45
2022-07-29T02:38:52.802Z,5.60
2022-07-29T02:42:04.254Z,5.57
2022-07-29T02:45:07.373Z,5.47
2022-07-29T02:48:16.360Z,5.57
2022-07-29T02:51:44.006Z,5.50
2022-07-29T02:54:55.107Z,5.82
2022-07-29T02:58:07.661Z,5.20
2022-07-29T03:01:21.707Z,5.37
2022-07-29T03:04:26.788Z,5.37
2022-07-29T03:07:30.561Z,5.47
2022-07-29T03:10:33.640Z,5.70
2022-07-29T03:13:36.940Z,5.43
2022-07-29T03:16:41.326Z,5.60
2022-07-29T03:19:44.455Z,5.47
2022-07-29T03:22:48.161Z,5.50
2022-07-29T03:25:51.688Z,5.53
2022-07-29T03:28:54.268Z,6.00
2022-07-29T03:31:57.853Z,5.53
2022-07-29T03:35:00.794Z,5.50
2022-07-29T03:38:03.851Z,5.78
2022-07-29T03:41:08.982Z,5.45
2022-07-29T03:44:12.451Z,5.47
2022-07-29T03:47:16.446Z,5.37
2022-07-29T03:50:21.978Z,5.55
2022-07-29T03:53:24.706Z,5.68
2022-07-29T03:56:29.235Z,5.55
2022-07-29T03:59:33.890Z,6.50
2022-07-29T04:02:37.488Z,6.12
2022-07-29T04:05:40.495Z,4.97
2022-07-29T04:08:43.397Z,5.87
2022-07-29T04:12:01.447Z,5.47
2022-07-29T04:15:06.729Z,5.43
2022-07-29T04:18:09.564Z,5.53
2022-07-29T04:21:12.162Z,5.57
2022-07-29T04:24:16.332Z,5.82
2022-07-29T04:27:19.172Z,5.30
2022-07-29T04:30:24.010Z,5.40
2022-07-29T04:33:27.158Z,5.70
2022-07-29T04:36:30.259Z,5.53
2022-07-29T04:39:32.768Z,5.72
2022-07-29T04:42:35.558Z,5.05
2022-07-29T04:45:49.189Z,4.93
2022-07-29T04:48:52.159Z,5.22
2022-07-29T04:51:54.889Z,5.53
2022-07-29T04:54:57.803Z,5.20
2022-07-29T04:58:00.358Z,5.35
2022-07-29T05:01:04.690Z,4.97
2022-07-29T05:04:07.228Z,5.15
2022-07-29T05:07:10.056Z,5.32
2022-07-29T05:10:12.805Z,5.43
2022-07-29T05:13:15.602Z,5.25
2022-07-29T05:16:18.171Z,5.00
2022-07-29T05:19:21.022Z,5.28
2022-07-29T05:22:24.145Z,5.30
2022-07-29T05:25:40.839Z,5.37
2022-07-29T05:28:47.132Z,5.15
2022-07-29T05:31:49.999Z,5.20
2022-07-29T05:34:52.550Z,4.68
2022-07-29T05:37:55.389Z,4.80
2022-07-29T05:40:59.758Z,4.87
2022-07-29T05:44:03.205Z,5.07
2022-07-29T05:47:06.006Z,5.47
2022-07-29T05:50:09.714Z,5.07
2022-07-29T05:53:19.179Z,4.60
2022-07-29T05:56:23.462Z,4.82
2022-07-29T05:59:30.098Z,5.45
2022-07-29T06:02:33.202Z,5.17
2022-07-29T06:05:36.106Z,5.10
2022-07-29T06:08:38.899Z,4.95
2022-07-29T06:11:42.633Z,5.12
2022-07-29T06:14:45.154Z,4.78
2022-07-29T06:17:59.371Z,4.73
2022-07-29T06:21:09.664Z,5.10
2022-07-29T06:24:14.014Z,4.87
2022-07-29T06:27:17.369Z,5.00
2022-07-29T06:30:20.333Z,4.75
2022-07-29T06:33:22.890Z,4.67
2022-07-29T06:36:25.941Z,4.70
2022-07-29T06:39:29.068Z,5.12
2022-07-29T06:42:32.128Z,4.43
2022-07-29T06:45:37.699Z,4.30
2022-07-29T06:48:43.224Z,4.33
2022-07-29T06:51:45.772Z,4.70
2022-07-29T06:54:49.344Z,4.70
2022-07-29T06:57:52.442Z,4.93
2022-07-29T07:00:55.926Z,4.82
2022-07-29T07:03:58.574Z,3.57
2022-07-29T07:07:01.393Z,4.50
2022-07-29T07:10:04.581Z,4.45
2022-07-29T07:13:07.759Z,4.57
2022-07-29T07:16:10.384Z,4.53
2022-07-29T07:19:14.187Z,4.83
2022-07-29T07:22:16.811Z,4.85
2022-07-29T07:25:19.628Z,4.37
2022-07-29T07:28:24.991Z,4.47
2022-07-29T07:31:28.133Z,4.62
2022-07-29T07:34:31.208Z,4.60
2022-07-29T07:37:34.579Z,4.43
2022-07-29T07:40:37.219Z,4.82
2022-07-29T07:43:40.111Z,4.15
2022-07-29T07:46:42.692Z,4.03
2022-07-29T07:49:46.037Z,4.10
2022-07-29T07:52:50.366Z,4.37
2022-07-29T07:56:10.049Z,4.25
2022-07-29T07:59:13.479Z,4.60
2022-07-29T08:02:16.384Z,4.22
2022-07-29T08:05:19.344Z,4.70
2022-07-29T08:08:22.229Z,4.30
2022-07-29T08:11:25.109Z,3.70
2022-07-29T08:14:27.643Z,3.78
2022-07-29T08:17:30.544Z,3.72
2022-07-29T08:20:39.384Z,3.80
2022-07-29T08:23:52.799Z,3.70
2022-07-29T08:27:00.548Z,3.00
2022-07-29T08:30:03.730Z,3.40
2022-07-29T08:33:06.443Z,3.78
2022-07-29T08:36:09.910Z,3.27
2022-07-29T08:39:12.511Z,3.35
2022-07-29T08:42:17.727Z,3.35
2022-07-29T08:45:21.518Z,3.60
2022-07-29T08:48:24.862Z,3.65
2022-07-29T08:51:27.733Z,3.20
2022-07-29T08:54:30.748Z,3.45
2022-07-29T08:57:35.016Z,3.58
2022-07-29T09:00:44.254Z,3.45
2022-07-29T09:03:47.905Z,3.22
2022-07-29T09:06:52.691Z,3.43
2022-07-29T09:09:55.746Z,3.03
2022-07-29T09:12:59.233Z,2.97
2022-07-29T09:16:07.035Z,3.20
2022-07-29T09:19:23.224Z,3.00
2022-07-29T09:22:32.965Z,3.30
2022-07-29T09:25:40.360Z,3.10
2022-07-29T09:28:43.522Z,3.35
2022-07-29T09:31:53.523Z,2.90
2022-07-29T09:35:15.058Z,3.42
2022-07-29T09:38:17.908Z,3.47
2022-07-29T09:41:20.464Z,3.00
2022-07-29T09:44:24.005Z,3.30
2022-07-29T09:47:41.947Z,3.05
2022-07-29T09:50:47.682Z,3.00
2022-07-29T09:53:51.402Z,2.70
2022-07-29T09:56:56.968Z,2.53
2022-07-29T10:00:02.254Z,3.00
2022-07-29T10:03:15.540Z,2.70
2022-07-29T10:06:18.341Z,3.25
2022-07-29T10:09:22.297Z,3.10
2022-07-29T10:12:25.722Z,3.30
2022-07-29T10:15:31.101Z,3.05
2022-07-29T10:18:34.665Z,3.87
2022-07-29T10:21:38.867Z,3.20
2022-07-29T10:24:41.661Z,2.90
2022-07-29T10:27:45.746Z,2.53
2022-07-29T10:30:51.373Z,3.10
2022-07-29T10:34:13.286Z,3.08
2022-07-29T10:37:22.000Z,2.85
2022-07-29T10:40:59.975Z,2.73
2022-07-29T10:44:06.147Z,3.15
2022-07-29T10:47:18.065Z,3.12
2022-07-29T10:50:22.846Z,2.80
2022-07-29T10:53:26.302Z,3.45
2022-07-29T10:56:37.193Z,2.77
2022-07-29T10:59:41.975Z,3.20
2022-07-29T11:02:49.934Z,3.50
2022-07-29T11:06:11.416Z,3.15
2022-07-29T11:09:20.379Z,3.53
2022-07-29T11:12:37.803Z,3.60
2022-07-29T11:15:55.438Z,3.70
2022-07-29T11:19:13.507Z,3.87
2022-07-29T11:22:36.789Z,2.95
2022-07-29T11:25:52.376Z,3.70
2022-07-29T11:29:02.335Z,3.67
2022-07-29T11:32:15.774Z,3.20
2022-07-29T11:35:38.112Z,3.20
2022-07-29T11:38:42.712Z,3.15
2022-07-29T11:41:45.788Z,3.33
2022-07-29T11:45:08.393Z,2.80
2022-07-29T11:48:27.797Z,3.37
2022-07-29T11:51:33.250Z,3.10
2022-07-29T12:01:25.256Z,2.70
2022-07-29T12:04:31.179Z,2.72
2022-07-29T12:07:35.607Z,3.05
2022-07-29T12:10:39.723Z,2.80
2022-07-29T12:13:42.441Z,3.03
2022-07-29T12:16:45.314Z,2.93
2022-07-29T12:19:48.005Z,3.00
2022-07-29T12:22:54.851Z,3.05
2022-07-29T12:25:59.391Z,3.20
2022-07-29T12:29:03.334Z,3.33
2022-07-29T12:32:14.490Z,3.30
2022-07-29T12:35:22.504Z,3.00
2022-07-29T12:38:25.701Z,3.40
2022-07-29T12:41:30.069Z,2.95
2022-07-29T12:44:58.973Z,3.35
2022-07-29T12:48:01.754Z,2.93
2022-07-29T12:51:06.986Z,2.95
2022-07-29T12:54:16.418Z,2.80
2022-07-29T12:57:20.369Z,2.70
2022-07-29T13:00:25.045Z,2.92
2022-07-29T13:03:27.816Z,2.70
2022-07-29T13:06:37.955Z,2.70
2022-07-29T13:09:42.752Z,3.03
2022-07-29T13:13:11.522Z,2.70
2022-07-29T13:16:14.068Z,2.65
2022-07-29T13:19:17.186Z,2.90
2022-07-29T13:22:24.264Z,2.90
2022-07-29T13:25:32.697Z,3.12
2022-07-29T13:28:35.343Z,2.78
2022-07-29T13:31:38.166Z,3.15
2022-07-29T13:34:41.759Z,3.20
2022-07-29T13:37:44.709Z,2.80
2022-07-29T13:40:47.386Z,3.00
2022-07-29T13:43:50.248Z,3.20
2022-07-29T13:46:52.787Z,3.30
2022-07-29T13:49:56.398Z,2.97
2022-07-29T13:52:58.901Z,3.08
2022-07-29T13:56:01.726Z,3.08
2022-07-29T13:59:04.327Z,3.28
2022-07-29T14:02:07.659Z,3.28
2022-07-29T14:05:13.401Z,3.03
2022-07-29T14:08:16.226Z,3.05
2022-07-29T14:11:19.174Z,2.90
2022-07-29T14:14:21.880Z,3.33
2022-07-29T14:17:24.720Z,3.42
2022-07-29T14:20:30.925Z,2.80
2022-07-29T14:23:33.720Z,3.00
2022-07-29T14:26:36.377Z,3.40
2022-07-29T14:29:39.411Z,3.75
2022-07-29T14:32:42.044Z,3.37
2022-07-29T14:35:45.941Z,3.77
2022-07-29T14:38:48.562Z,3.40
2022-07-29T14:41:52.167Z,3.58
2022-07-29T14:44:55.074Z,3.45
2022-07-29T14:47:58.349Z,3.97
2022-07-29T14:51:04.529Z,3.23
2022-07-29T14:54:07.924Z,3.65
2022-07-29T14:57:10.494Z,3.42
2022-07-29T15:00:13.633Z,3.40
2022-07-29T15:03:24.186Z,3.70
2022-07-29T15:06:27.823Z,3.33
2022-07-29T15:09:30.343Z,3.92
2022-07-29T15:12:34.088Z,3.92
2022-07-29T15:15:36.821Z,4.07
2022-07-29T15:18:39.762Z,3.72
2022-07-29T15:21:48.813Z,4.17
2022-07-29T15:24:51.913Z,3.42
2022-07-29T15:27:56.663Z,3.55
2022-07-29T15:31:03.576Z,4.37
2022-07-29T15:34:06.536Z,3.47
2022-07-29T15:37:09.425Z,4.37
2022-07-29T15:40:12.060Z,3.92
2022-07-29T15:43:15.055Z,4.60
2022-07-29T15:46:37.698Z,4.68
2022-07-29T15:49:46.456Z,5.00
2022-07-29T15:52:51.936Z,4.93
2022-07-29T15:55:54.773Z,5.20
2022-07-29T15:58:57.723Z,3.97
2022-07-29T16:02:01.022Z,5.85
2022-07-29T16:05:04.174Z,5.15
2022-07-29T16:08:11.941Z,4.47
2022-07-29T16:11:14.793Z,4.12
2022-07-29T16:14:18.409Z,4.47
2022-07-29T16:17:21.367Z,3.17
2022-07-29T16:20:24.045Z,4.50
2022-07-29T16:23:26.837Z,4.40
2022-07-29T16:26:29.370Z,4.55
2022-07-29T16:29:32.517Z,4.85
2022-07-29T16:32:35.321Z,4.03
2022-07-29T16:35:40.393Z,5.35
2022-07-29T16:38:47.101Z,5.60
2022-07-29T16:41:50.397Z,4.15
2022-07-29T16:44:52.997Z,4.60
2022-07-29T16:48:00.171Z,5.03
2022-07-29T16:51:04.643Z,6.20
2022-07-29T16:54:08.758Z,6.13
2022-07-29T16:57:11.902Z,5.80
2022-07-29T17:00:16.660Z,4.75
2022-07-29T17:03:19.175Z,5.30
2022-07-29T17:06:21.963Z,4.95
2022-07-29T17:09:25.009Z,5.03
2022-07-29T17:12:27.852Z,5.90
2022-07-29T17:15:30.693Z,6.00
2022-07-29T17:18:39.452Z,5.60
2022-07-29T17:21:46.250Z,4.80
2022-07-29T17:24:52.219Z,5.17
2022-07-29T17:28:00.601Z,6.03
2022-07-29T17:31:03.934Z,6.55
2022-07-29T17:34:07.478Z,6.05
2022-07-29T17:37:11.682Z,6.25
2022-07-29T17:40:14.267Z,5.90
2022-07-29T17:43:17.471Z,6.62
2022-07-29T17:46:22.194Z,6.43
2022-07-29T17:49:25.555Z,6.25
2022-07-29T17:52:28.089Z,6.28
2022-07-29T17:55:30.946Z,6.50
2022-07-29T17:58:34.119Z,6.68
2022-07-29T18:01:38.217Z,7.47
2022-07-29T18:04:41.045Z,7.12
2022-07-29T18:07:43.656Z,7.45
2022-07-29T18:10:47.126Z,7.27
2022-07-29T18:13:50.017Z,6.93
2022-07-29T18:16:52.914Z,6.57
2022-07-29T18:19:55.496Z,6.95
2022-07-29T18:22:58.399Z,6.68
2022-07-29T18:26:02.574Z,6.50
2022-07-29T18:29:05.499Z,7.07
2022-07-29T18:32:11.837Z,6.87
2022-07-29T18:35:14.647Z,7.47
2022-07-29T18:38:17.646Z,7.78
2022-07-29T18:41:20.525Z,6.93
2022-07-29T18:44:23.138Z,7.32
2022-07-29T18:47:32.263Z,7.57
2022-07-29T18:50:36.368Z,7.30
2022-07-29T18:53:39.229Z,7.80
2022-07-29T18:56:41.770Z,7.57
2022-07-29T18:59:44.545Z,7.75
2022-07-29T19:02:47.212Z,7.72
2022-07-29T19:05:50.244Z,8.30
2022-07-29T19:08:53.417Z,7.57
2022-07-29T19:11:59.658Z,7.93
2022-07-29T19:15:04.716Z,7.85
2022-07-29T19:18:07.653Z,8.00
2022-07-29T19:21:10.790Z,7.90
2022-07-29T19:24:15.797Z,8.20
2022-07-29T19:27:18.893Z,7.90
2022-07-29T19:30:21.961Z,8.20
2022-07-29T19:33:24.544Z,9.07
2022-07-29T19:36:27.440Z,7.90
2022-07-29T19:39:35.443Z,8.50
2022-07-29T19:42:38.503Z,7.57
2022-07-29T19:45:41.107Z,7.43
2022-07-29T19:48:44.629Z,6.90
2022-07-29T19:51:47.314Z,7.07
2022-07-29T19:54:50.195Z,6.68
2022-07-29T19:57:53.300Z,7.20
2022-07-29T20:00:56.160Z,6.93
2022-07-29T20:03:59.045Z,6.22
2022-07-29T20:07:02.152Z,6.37
2022-07-29T20:10:06.975Z,6.50
2022-07-29T20:13:09.617Z,6.40
2022-07-29T20:16:12.457Z,6.25
2022-07-29T20:19:15.477Z,7.10
2022-07-29T20:22:21.146Z,6.10
2022-07-29T20:25:24.215Z,5.65
2022-07-29T20:28:27.099Z,5.10
2022-07-29T20:31:30.712Z,5.03
2022-07-29T20:34:33.663Z,5.07
2022-07-29T20:37:55.749Z,5.10
2022-07-29T20:40:58.973Z,4.50
2022-07-29T20:44:02.271Z,4.33
2022-07-29T20:47:05.158Z,4.50
2022-07-29T20:50:09.969Z,4.60
2022-07-29T20:53:13.657Z,4.10
2022-07-29T20:56:16.170Z,4.00
2022-07-29T20:59:19.202Z,3.87
2022-07-29T21:02:21.782Z,4.20
2022-07-29T21:05:24.648Z,3.90
2022-07-29T21:08:27.641Z,4.07
2022-07-29T21:11:44.758Z,4.40
2022-07-29T21:14:51.793Z,4.17
2022-07-29T21:18:00.753Z,4.00
2022-07-29T21:21:05.085Z,4.75
2022-07-29T21:24:08.321Z,4.47
2022-07-29T21:27:32.826Z,4.65
2022-07-29T21:30:36.379Z,4.10
2022-07-29T21:33:40.997Z,4.32
2022-07-29T21:36:48.333Z,4.87
2022-07-29T21:39:51.406Z,4.47
2022-07-29T21:42:54.169Z,4.50
2022-07-29T21:45:57.524Z,4.90
2022-07-29T21:49:00.544Z,4.65
2022-07-29T21:52:03.993Z,4.22
2022-07-29T21:55:07.456Z,4.57
2022-07-29T21:58:15.577Z,4.93
2022-07-29T22:01:18.488Z,4.73
2022-07-29T22:04:21.519Z,4.50
2022-07-29T22:07:24.041Z,4.70
2022-07-29T22:10:28.866Z,4.90
2022-07-29T22:13:36.966Z,4.97
2022-07-29T22:16:39.928Z,4.77
2022-07-29T22:19:42.741Z,4.68
2022-07-29T22:22:45.906Z,5.07
2022-07-29T22:25:48.573Z,4.70
2022-07-29T22:28:51.393Z,5.22
2022-07-29T22:31:53.987Z,5.07
2022-07-29T22:34:56.783Z,5.05
2022-07-29T22:37:59.284Z,5.37
2022-07-29T22:41:03.358Z,5.00
2022-07-29T22:44:06.039Z,5.25
2022-07-29T22:47:08.826Z,5.57
2022-07-29T22:50:11.363Z,5.55
2022-07-29T22:53:14.297Z,5.65
2022-07-29T22:56:17.708Z,5.80
2022-07-29T22:59:20.572Z,6.10
2022-07-29T23:02:23.133Z,6.00
2022-07-29T23:05:26.267Z,6.47
2022-07-29T23:08:28.792Z,6.12
2022-07-29T23:11:31.898Z,5.62
2022-07-29T23:14:39.925Z,6.25
2022-07-29T23:17:42.761Z,6.03
2022-07-29T23:20:45.675Z,5.95
2022-07-29T23:23:49.133Z,6.28
2022-07-29T23:26:51.791Z,6.45
2022-07-29T23:29:54.557Z,6.15
2022-07-29T23:32:57.259Z,6.07
2022-07-29T23:36:00.019Z,5.60
2022-07-29T23:39:02.580Z,6.00
2022-07-29T23:42:05.468Z,6.65
2022-07-29T23:45:08.994Z,5.60
2022-07-29T23:48:11.970Z,5.60
2022-07-29T23:51:14.505Z,5.72
2022-07-29T23:54:17.375Z,5.95
2022-07-29T23:57:22.928Z,5.47
